createdAt,value
2018-02-03T00:00:35.143Z,3.40
2018-02-03T00:05:36.134Z,3.40
2018-02-03T00:10:37.195Z,3.50
2018-02-03T00:15:38.932Z,3.40
2018-02-03T00:20:39.924Z,3.40
2018-02-03T00:25:40.940Z,3.40
2018-02-03T00:30:41.934Z,3.30
2018-02-03T00:35:42.923Z,3.30
2018-02-03T00:40:44.661Z,3.20
2018-02-03T00:45:45.638Z,3.20
2018-02-03T00:50:46.671Z,3.20
2018-02-03T00:55:47.708Z,3.30
2018-02-03T01:00:48.706Z,3.30
2018-02-03T01:05:49.732Z,3.20
2018-02-03T01:10:50.765Z,3.30
2018-02-03T01:15:51.768Z,3.20
2018-02-03T01:20:52.784Z,3.20
2018-02-03T01:25:54.535Z,3.20
2018-02-03T01:30:55.523Z,3.20
2018-02-03T01:35:56.510Z,3.20
2018-02-03T01:40:57.531Z,3.10
2018-02-03T01:45:58.535Z,3.10
2018-02-03T01:50:59.540Z,3.00
2018-02-03T01:56:00.550Z,3.10
2018-02-03T02:01:01.547Z,3.20
2018-02-03T02:06:02.558Z,3.10
2018-02-03T02:11:04.343Z,3.10
2018-02-03T02:16:06.101Z,3.00
2018-02-03T02:21:07.103Z,3.00
2018-02-03T02:26:08.094Z,3.00
2018-02-03T02:31:09.066Z,3.00
2018-02-03T02:36:10.057Z,2.90
2018-02-03T02:41:11.052Z,2.90
2018-02-03T02:46:12.068Z,2.90
2018-02-03T02:51:13.076Z,2.80
2018-02-03T02:56:14.127Z,2.70
2018-02-03T03:01:15.239Z,2.70
2018-02-03T03:06:16.945Z,2.80
2018-02-03T03:11:17.942Z,2.70
2018-02-03T03:16:18.934Z,2.70
2018-02-03T03:21:19.954Z,2.70
2018-02-03T03:26:20.962Z,2.70
2018-02-03T03:31:21.968Z,2.70
2018-02-03T03:36:22.975Z,2.80
2018-02-03T03:41:24.788Z,2.70
2018-02-03T03:46:25.802Z,2.60
2018-02-03T03:51:26.803Z,2.70
2018-02-03T03:56:27.795Z,2.60
2018-02-03T04:01:28.807Z,2.60
2018-02-03T04:06:29.807Z,2.50
2018-02-03T04:11:31.546Z,2.60
2018-02-03T04:16:32.562Z,2.60
2018-02-03T04:21:33.570Z,2.70
2018-02-03T04:26:35.310Z,2.60
2018-02-03T04:31:36.336Z,2.60
2018-02-03T04:36:37.346Z,2.60
2018-02-03T04:41:39.099Z,2.60
2018-02-03T04:46:40.107Z,2.50
2018-02-03T04:51:41.130Z,2.60
2018-02-03T04:56:42.138Z,2.60
2018-02-03T05:01:43.126Z,2.60
2018-02-03T05:06:44.107Z,2.50
2018-02-03T05:11:45.094Z,2.50
2018-02-03T05:16:46.135Z,2.50
2018-02-03T05:21:47.144Z,2.60
2018-02-03T05:26:48.126Z,2.60
2018-02-03T05:31:49.114Z,2.60
2018-02-03T05:36:50.090Z,2.50
2018-02-03T05:41:51.120Z,2.50
2018-02-03T05:46:52.877Z,2.60
2018-02-03T05:51:53.867Z,2.50
2018-02-03T05:56:54.905Z,2.60
2018-02-03T06:01:55.951Z,2.50
2018-02-03T06:06:56.939Z,2.50
2018-02-03T06:11:57.947Z,2.50
2018-02-03T06:16:59.703Z,2.50
2018-02-03T06:22:00.738Z,2.40
2018-02-03T06:27:01.742Z,2.50
2018-02-03T06:32:02.736Z,2.50
2018-02-03T06:37:03.751Z,2.60
2018-02-03T06:42:04.755Z,2.60
2018-02-03T06:47:06.507Z,2.60
2018-02-03T06:52:07.533Z,2.50
2018-02-03T06:57:09.281Z,2.60
2018-02-03T07:02:10.286Z,2.60
2018-02-03T07:07:11.314Z,2.60
2018-02-03T07:12:12.328Z,2.50
2018-02-03T07:17:13.444Z,2.60
2018-02-03T07:22:14.548Z,2.60
2018-02-03T07:27:16.298Z,2.60
2018-02-03T07:32:17.286Z,2.50
2018-02-03T07:37:18.407Z,2.70
2018-02-03T07:42:20.160Z,2.70
2018-02-03T07:47:21.184Z,2.60
2018-02-03T07:52:22.186Z,2.60
2018-02-03T07:57:23.927Z,2.60
2018-02-03T08:02:24.952Z,2.60
2018-02-03T08:07:25.943Z,2.60
2018-02-03T08:12:26.964Z,2.70
2018-02-03T08:17:27.958Z,2.70
2018-02-03T08:22:28.939Z,2.70
2018-02-03T08:27:29.947Z,2.70
2018-02-03T08:32:30.957Z,2.70
2018-02-03T08:37:32.083Z,2.70
2018-02-03T08:42:33.028Z,2.70
2018-02-03T08:47:34.372Z,2.70
2018-02-03T08:52:35.478Z,2.70
2018-02-03T08:57:36.458Z,2.60
2018-02-03T09:02:37.448Z,2.70
2018-02-03T09:07:38.440Z,2.80
2018-02-03T09:12:39.439Z,2.70
2018-02-03T09:17:40.435Z,2.80
2018-02-03T09:22:42.174Z,2.80
2018-02-03T09:27:43.198Z,2.80
2018-02-03T09:32:44.220Z,2.70
2018-02-03T09:37:45.957Z,2.90
2018-02-03T09:42:46.966Z,2.80
2018-02-03T09:47:48.073Z,3.00
2018-02-03T09:52:49.831Z,3.00
2018-02-03T09:57:50.831Z,2.90
2018-02-03T10:02:51.848Z,2.90
2018-02-03T10:07:52.835Z,2.90
2018-02-03T10:12:54.586Z,5.10
2018-02-03T10:17:55.578Z,5.10
2018-02-03T10:22:56.570Z,6.90
2018-02-03T10:27:57.562Z,6.70
2018-02-03T10:32:58.554Z,6.30
2018-02-03T10:38:00.292Z,5.70
2018-02-03T10:43:01.348Z,5.70
2018-02-03T10:48:02.348Z,5.70
2018-02-03T10:53:03.336Z,5.40
2018-02-03T10:58:04.322Z,5.50
2018-02-03T11:03:05.306Z,4.80
2018-02-03T11:08:06.327Z,5.30
2018-02-03T11:13:07.306Z,4.80
2018-02-03T11:18:08.286Z,5.10
2018-02-03T11:23:09.395Z,5.40
2018-02-03T11:28:11.127Z,5.40
2018-02-03T11:33:12.127Z,5.30
2018-02-03T11:38:13.175Z,5.20
2018-02-03T11:43:14.162Z,5.00
2018-02-03T11:48:15.158Z,4.40
2018-02-03T11:53:16.161Z,4.60
2018-02-03T11:58:17.207Z,4.70
2018-02-03T12:03:18.215Z,4.50
2018-02-03T12:08:19.207Z,4.50
2018-02-03T12:13:20.216Z,4.80
2018-02-03T12:18:21.216Z,5.10
2018-02-03T12:23:22.970Z,5.30
2018-02-03T12:28:23.958Z,5.20
2018-02-03T12:33:26.244Z,5.30
2018-02-03T12:38:28.874Z,5.10
2018-02-03T12:43:29.890Z,4.90
2018-02-03T12:48:30.890Z,5.00
2018-02-03T12:53:31.889Z,4.80
2018-02-03T12:58:32.874Z,4.70
2018-02-03T13:03:34.612Z,5.00
2018-02-03T13:08:35.603Z,5.00
2018-02-03T13:13:36.600Z,4.90
2018-02-03T13:18:37.619Z,4.50
2018-02-03T13:23:39.375Z,4.60
2018-02-03T13:28:40.360Z,4.60
2018-02-03T13:33:41.355Z,4.60
2018-02-03T13:38:42.354Z,4.50
2018-02-03T13:43:43.334Z,4.40
2018-02-03T13:48:44.319Z,4.50
2018-02-03T13:53:45.315Z,4.50
2018-02-03T13:58:47.063Z,4.50
2018-02-03T14:03:49.117Z,4.50
2018-02-03T14:08:50.114Z,4.60
2018-02-03T14:13:51.875Z,4.80
2018-02-03T14:18:52.875Z,4.80
2018-02-03T14:29:34.770Z,4.80
2018-02-03T14:34:35.852Z,4.60
2018-02-03T14:39:36.872Z,4.70
2018-02-03T14:44:38.599Z,4.60
2018-02-03T14:49:39.598Z,4.50
2018-02-03T14:54:40.626Z,4.70
2018-02-03T14:59:42.378Z,4.70
2018-02-03T15:04:43.396Z,4.70
2018-02-03T15:09:44.406Z,4.50
2018-02-03T15:14:46.164Z,4.40
2018-02-03T15:19:54.140Z,4.40
2018-02-03T15:24:55.938Z,4.50
2018-02-03T15:29:56.932Z,4.40
2018-02-03T15:34:58.699Z,4.40
2018-02-03T15:40:01.626Z,4.40
2018-02-03T15:45:02.910Z,4.40
2018-02-03T15:50:03.936Z,4.30
2018-02-03T15:55:04.950Z,4.20
2018-02-03T16:00:06.754Z,4.10
2018-02-03T16:05:07.759Z,4.00
2018-02-03T16:10:08.766Z,4.10
2018-02-03T16:15:10.521Z,3.90
2018-02-03T16:20:11.520Z,3.90
2018-02-03T16:25:12.524Z,3.90
2018-02-03T16:30:13.544Z,3.80
2018-02-03T16:35:14.538Z,3.80
2018-02-03T16:40:15.531Z,3.70
2018-02-03T16:45:16.534Z,3.70
2018-02-03T16:50:17.534Z,3.60
2018-02-03T16:55:18.635Z,3.50
2018-02-03T17:00:20.438Z,3.30
2018-02-03T17:05:22.183Z,3.20
2018-02-03T17:10:23.232Z,3.20
2018-02-03T17:15:24.983Z,3.20
2018-02-03T17:20:25.975Z,3.10
2018-02-03T17:25:26.985Z,3.30
2018-02-03T17:30:28.716Z,3.20
2018-02-03T17:35:29.715Z,3.10
2018-02-03T17:40:30.718Z,3.30
2018-02-03T17:45:37.982Z,3.30
2018-02-03T17:50:40.382Z,3.30
2018-02-03T17:55:47.515Z,3.20
2018-02-03T18:00:48.522Z,3.30
2018-02-03T18:05:50.255Z,3.20
2018-02-03T18:10:51.235Z,3.20
2018-02-03T18:15:52.235Z,3.20
2018-02-03T18:20:53.227Z,3.10
2018-02-03T18:25:54.230Z,3.20
2018-02-03T18:30:55.252Z,3.20
2018-02-03T18:35:56.234Z,3.20
2018-02-03T18:40:57.296Z,3.10
2018-02-03T18:45:59.024Z,3.10
2018-02-03T18:51:00.060Z,3.00
2018-02-03T18:56:01.173Z,3.10
2018-02-03T19:01:02.178Z,3.20
2018-02-03T19:06:03.203Z,3.10
2018-02-03T19:11:04.329Z,3.20
2018-02-03T19:16:06.076Z,3.00
2018-02-03T19:21:07.076Z,3.00
2018-02-03T19:26:08.072Z,3.00
2018-02-03T19:31:09.091Z,2.90
2018-02-03T19:36:10.134Z,2.90
2018-02-03T19:41:11.122Z,2.90
2018-02-03T19:46:12.114Z,2.90
2018-02-03T19:51:13.107Z,2.80
2018-02-03T19:56:14.117Z,2.70
2018-02-03T20:01:15.168Z,2.60
2018-02-03T20:06:16.179Z,2.60
2018-02-03T20:11:17.172Z,2.50
2018-02-03T20:16:18.189Z,2.60
2018-02-03T20:21:19.201Z,2.50
2018-02-03T20:26:20.304Z,2.60
2018-02-03T20:31:21.309Z,2.50
2018-02-03T20:36:22.314Z,2.50
2018-02-03T20:41:23.331Z,2.40
2018-02-03T20:46:31.479Z,2.50
2018-02-03T20:51:32.496Z,2.50
2018-02-03T20:56:33.508Z,2.50
2018-02-03T21:01:34.500Z,2.50
2018-02-03T21:06:35.516Z,2.60
2018-02-03T21:11:37.247Z,2.60
2018-02-03T21:16:38.235Z,2.60
2018-02-03T21:21:39.251Z,2.60
2018-02-03T21:26:40.251Z,2.70
2018-02-03T21:31:41.243Z,2.70
2018-02-03T21:36:42.290Z,2.70
2018-02-03T21:41:43.287Z,2.70
2018-02-03T21:46:44.300Z,2.70
2018-02-03T21:51:46.060Z,2.70
2018-02-03T21:56:47.079Z,2.60
2018-02-03T22:01:48.819Z,2.70
2018-02-03T22:06:49.806Z,2.70
2018-02-03T22:11:50.821Z,2.70
2018-02-03T22:16:51.821Z,2.70
2018-02-03T22:21:52.823Z,2.60
2018-02-03T22:26:54.570Z,2.70
2018-02-03T22:31:55.571Z,2.60
2018-02-03T22:36:56.583Z,2.70
2018-02-03T22:41:58.299Z,2.60
2018-02-03T22:46:59.283Z,2.60
2018-02-03T22:52:00.271Z,2.60
2018-02-03T22:57:01.263Z,2.60
2018-02-03T23:02:02.263Z,2.60
2018-02-03T23:07:03.266Z,2.60
2018-02-03T23:12:04.273Z,2.50
2018-02-03T23:17:06.002Z,2.40
2018-02-03T23:22:07.018Z,2.40
2018-02-03T23:27:08.011Z,2.40
2018-02-03T23:32:09.007Z,2.40
2018-02-03T23:37:10.022Z,2.40
2018-02-03T23:42:11.028Z,2.30
2018-02-03T23:47:12.030Z,2.40
2018-02-03T23:52:13.032Z,2.40
2018-02-03T23:57:14.031Z,2.40
